2012-02-21から1日間の記事一覧

auの通信カードW05Kを解約

pc

した。2001年に始まったauとの契約もこれで終わった。 モバイル通信は出来なくなるけど、iphoneがあるので不自由しないだろう。 そのうちsimフリーのモバイルルータを買いたいと思うけど、最近iijから新しいサービスが出たようなので、ぼちぼち研究しながら選ぼうっと。

Aviation Digital Data Service (ADDS)

Aviation Digital Data Service (ADDS)Output produced by TAFs form (0452 UTC 21 February 2012) found at http://aviationweather.gov/adds/tafs/ RJFR 210400Z 12003KT 100V160 9999 FEW012 SCT050 BKN080 07/02 Q1022 RJFR 210300Z 06005KT 9999 FEW025…